sensor_id;sensor_type;location;lat;lon;timestamp;P1;durP1;ratioP1;P2;durP2;ratioP2
25946;SDS011;13745;51.470;9.894;2022-09-09T00:00:11;2.28;;;0.95;;
25946;SDS011;13745;51.470;9.894;2022-09-09T00:03:00;3.67;;;1.00;;
25946;SDS011;13745;51.470;9.894;2022-09-09T00:05:57;3.58;;;0.80;;
25946;SDS011;13745;51.470;9.894;2022-09-09T00:08:52;4.88;;;1.05;;
25946;SDS011;13745;51.470;9.894;2022-09-09T00:11:47;4.15;;;0.88;;
25946;SDS011;13745;51.470;9.894;2022-09-09T00:14:39;2.47;;;0.85;;
25946;SDS011;13745;51.470;9.894;2022-09-09T00:17:32;5.72;;;1.20;;
25946;SDS011;13745;51.470;9.894;2022-09-09T00:20:25;4.15;;;1.10;;
25946;SDS011;13745;51.470;9.894;2022-09-09T00:23:19;5.88;;;1.52;;
25946;SDS011;13745;51.470;9.894;2022-09-09T00:26:09;5.40;;;1.48;;
25946;SDS011;13745;51.470;9.894;2022-09-09T00:29:05;7.03;;;1.25;;
25946;SDS011;13745;51.470;9.894;2022-09-09T00:32:05;2.40;;;0.80;;
25946;SDS011;13745;51.470;9.894;2022-09-09T00:34:59;4.30;;;0.88;;
25946;SDS011;13745;51.470;9.894;2022-09-09T00:37:50;4.57;;;1.00;;
25946;SDS011;13745;51.470;9.894;2022-09-09T00:40:39;1.80;;;0.70;;
25946;SDS011;13745;51.470;9.894;2022-09-09T00:43:35;4.80;;;0.90;;
25946;SDS011;13745;51.470;9.894;2022-09-09T00:49:40;5.20;;;1.02;;
25946;SDS011;13745;51.470;9.894;2022-09-09T00:52:36;3.85;;;1.30;;
25946;SDS011;13745;51.470;9.894;2022-09-09T00:55:31;10.82;;;0.90;;
25946;SDS011;13745;51.470;9.894;2022-09-09T00:58:24;2.40;;;1.20;;
25946;SDS011;13745;51.470;9.894;2022-09-09T01:01:12;2.40;;;1.05;;
25946;SDS011;13745;51.470;9.894;2022-09-09T01:03:59;5.78;;;1.00;;
25946;SDS011;13745;51.470;9.894;2022-09-09T01:06:47;4.68;;;1.00;;
25946;SDS011;13745;51.470;9.894;2022-09-09T01:09:46;1.33;;;0.98;;
25946;SDS011;13745;51.470;9.894;2022-09-09T01:12:38;2.80;;;0.80;;
25946;SDS011;13745;51.470;9.894;2022-09-09T01:15:31;7.10;;;1.30;;
25946;SDS011;13745;51.470;9.894;2022-09-09T01:18:18;3.33;;;0.90;;
25946;SDS011;13745;51.470;9.894;2022-09-09T01:21:08;4.20;;;1.08;;
25946;SDS011;13745;51.470;9.894;2022-09-09T01:27:32;4.03;;;1.27;;
25946;SDS011;13745;51.470;9.894;2022-09-09T01:30:20;3.88;;;1.10;;
25946;SDS011;13745;51.470;9.894;2022-09-09T01:33:07;2.28;;;0.90;;
25946;SDS011;13745;51.470;9.894;2022-09-09T01:35:59;6.70;;;1.42;;
25946;SDS011;13745;51.470;9.894;2022-09-09T01:38:56;2.40;;;1.10;;
25946;SDS011;13745;51.470;9.894;2022-09-09T01:41:42;2.90;;;0.90;;
25946;SDS011;13745;51.470;9.894;2022-09-09T01:44:33;4.05;;;0.80;;
25946;SDS011;13745;51.470;9.894;2022-09-09T01:47:20;3.28;;;0.80;;
25946;SDS011;13745;51.470;9.894;2022-09-09T01:50:25;6.22;;;1.20;;
25946;SDS011;13745;51.470;9.894;2022-09-09T01:53:11;2.20;;;0.90;;
25946;SDS011;13745;51.470;9.894;2022-09-09T01:56:02;4.57;;;1.33;;
25946;SDS011;13745;51.470;9.894;2022-09-09T01:59:02;5.63;;;1.15;;
25946;SDS011;13745;51.470;9.894;2022-09-09T02:01:58;4.43;;;0.88;;
25946;SDS011;13745;51.470;9.894;2022-09-09T02:04:53;4.90;;;1.17;;
25946;SDS011;13745;51.470;9.894;2022-09-09T02:07:44;4.43;;;1.00;;
25946;SDS011;13745;51.470;9.894;2022-09-09T02:10:52;5.15;;;1.17;;
25946;SDS011;13745;51.470;9.894;2022-09-09T02:13:55;5.40;;;1.00;;
25946;SDS011;13745;51.470;9.894;2022-09-09T02:16:47;3.92;;;1.02;;
25946;SDS011;13745;51.470;9.894;2022-09-09T02:19:41;3.53;;;1.40;;
25946;SDS011;13745;51.470;9.894;2022-09-09T02:22:44;3.10;;;1.17;;
25946;SDS011;13745;51.470;9.894;2022-09-09T02:25:36;5.15;;;1.17;;
25946;SDS011;13745;51.470;9.894;2022-09-09T02:28:35;3.33;;;0.95;;
25946;SDS011;13745;51.470;9.894;2022-09-09T02:31:23;2.88;;;1.15;;
25946;SDS011;13745;51.470;9.894;2022-09-09T02:34:16;2.35;;;1.10;;
25946;SDS011;13745;51.470;9.894;2022-09-09T02:37:07;2.92;;;1.00;;
25946;SDS011;13745;51.470;9.894;2022-09-09T02:39:56;2.13;;;1.08;;
25946;SDS011;13745;51.470;9.894;2022-09-09T02:42:43;3.97;;;1.15;;
25946;SDS011;13745;51.470;9.894;2022-09-09T02:45:32;4.32;;;1.10;;
25946;SDS011;13745;51.470;9.894;2022-09-09T02:48:26;4.53;;;1.40;;
25946;SDS011;13745;51.470;9.894;2022-09-09T02:51:23;2.83;;;1.40;;
25946;SDS011;13745;51.470;9.894;2022-09-09T02:54:19;4.72;;;1.27;;
25946;SDS011;13745;51.470;9.894;2022-09-09T02:57:08;7.47;;;1.63;;
25946;SDS011;13745;51.470;9.894;2022-09-09T02:59:58;3.58;;;1.25;;
25946;SDS011;13745;51.470;9.894;2022-09-09T03:02:44;3.75;;;1.25;;
25946;SDS011;13745;51.470;9.894;2022-09-09T03:05:30;2.97;;;1.00;;
25946;SDS011;13745;51.470;9.894;2022-09-09T03:08:17;7.05;;;1.60;;
25946;SDS011;13745;51.470;9.894;2022-09-09T03:11:05;3.67;;;1.35;;
25946;SDS011;13745;51.470;9.894;2022-09-09T03:13:54;8.40;;;1.58;;
25946;SDS011;13745;51.470;9.894;2022-09-09T03:16:41;5.50;;;1.45;;
25946;SDS011;13745;51.470;9.894;2022-09-09T03:19:28;1.63;;;0.90;;
25946;SDS011;13745;51.470;9.894;2022-09-09T03:22:15;4.25;;;1.30;;
25946;SDS011;13745;51.470;9.894;2022-09-09T03:25:03;5.72;;;1.10;;
25946;SDS011;13745;51.470;9.894;2022-09-09T03:27:54;5.00;;;1.10;;
25946;SDS011;13745;51.470;9.894;2022-09-09T03:30:42;3.35;;;1.05;;
25946;SDS011;13745;51.470;9.894;2022-09-09T03:33:28;2.63;;;1.08;;
25946;SDS011;13745;51.470;9.894;2022-09-09T03:36:16;6.20;;;1.42;;
25946;SDS011;13745;51.470;9.894;2022-09-09T03:39:02;8.65;;;1.13;;
25946;SDS011;13745;51.470;9.894;2022-09-09T03:41:49;2.08;;;1.48;;
25946;SDS011;13745;51.470;9.894;2022-09-09T03:44:37;5.68;;;1.38;;
25946;SDS011;13745;51.470;9.894;2022-09-09T03:47:24;6.18;;;1.10;;
25946;SDS011;13745;51.470;9.894;2022-09-09T03:50:15;7.53;;;1.70;;
25946;SDS011;13745;51.470;9.894;2022-09-09T03:53:04;4.68;;;1.02;;
25946;SDS011;13745;51.470;9.894;2022-09-09T03:55:51;3.33;;;1.00;;
25946;SDS011;13745;51.470;9.894;2022-09-09T03:58:39;5.05;;;1.50;;
25946;SDS011;13745;51.470;9.894;2022-09-09T04:01:27;3.13;;;1.10;;
25946;SDS011;13745;51.470;9.894;2022-09-09T04:04:13;5.57;;;1.10;;
25946;SDS011;13745;51.470;9.894;2022-09-09T04:06:59;3.85;;;1.15;;
25946;SDS011;13745;51.470;9.894;2022-09-09T04:09:45;1.85;;;0.80;;
25946;SDS011;13745;51.470;9.894;2022-09-09T04:12:32;5.05;;;1.20;;
25946;SDS011;13745;51.470;9.894;2022-09-09T04:15:19;3.40;;;1.05;;
25946;SDS011;13745;51.470;9.894;2022-09-09T04:18:06;3.70;;;1.23;;
25946;SDS011;13745;51.470;9.894;2022-09-09T04:20:52;6.13;;;1.00;;
25946;SDS011;13745;51.470;9.894;2022-09-09T04:23:43;2.85;;;1.05;;
25946;SDS011;13745;51.470;9.894;2022-09-09T04:26:29;4.00;;;1.20;;
25946;SDS011;13745;51.470;9.894;2022-09-09T04:29:15;5.43;;;1.08;;
25946;SDS011;13745;51.470;9.894;2022-09-09T04:32:01;5.50;;;1.30;;
25946;SDS011;13745;51.470;9.894;2022-09-09T04:34:49;5.50;;;1.88;;
25946;SDS011;13745;51.470;9.894;2022-09-09T04:37:34;3.28;;;1.30;;
25946;SDS011;13745;51.470;9.894;2022-09-09T04:40:20;3.40;;;1.15;;
25946;SDS011;13745;51.470;9.894;2022-09-09T04:43:07;4.93;;;1.00;;
25946;SDS011;13745;51.470;9.894;2022-09-09T04:45:54;2.53;;;1.02;;
25946;SDS011;13745;51.470;9.894;2022-09-09T04:48:43;3.97;;;1.33;;
25946;SDS011;13745;51.470;9.894;2022-09-09T04:51:31;5.22;;;1.23;;
25946;SDS011;13745;51.470;9.894;2022-09-09T04:54:16;2.25;;;1.00;;
25946;SDS011;13745;51.470;9.894;2022-09-09T04:57:04;4.80;;;1.08;;
25946;SDS011;13745;51.470;9.894;2022-09-09T04:59:49;5.50;;;1.00;;
25946;SDS011;13745;51.470;9.894;2022-09-09T05:02:37;3.55;;;1.13;;
25946;SDS011;13745;51.470;9.894;2022-09-09T05:05:23;2.92;;;1.02;;
25946;SDS011;13745;51.470;9.894;2022-09-09T05:08:11;2.15;;;1.08;;
25946;SDS011;13745;51.470;9.894;2022-09-09T05:10:57;2.65;;;1.13;;
25946;SDS011;13745;51.470;9.894;2022-09-09T05:13:43;4.28;;;1.15;;
25946;SDS011;13745;51.470;9.894;2022-09-09T05:16:30;2.58;;;0.80;;
25946;SDS011;13745;51.470;9.894;2022-09-09T05:19:16;5.35;;;1.08;;
25946;SDS011;13745;51.470;9.894;2022-09-09T05:22:05;2.40;;;1.00;;
25946;SDS011;13745;51.470;9.894;2022-09-09T05:25:00;5.78;;;0.95;;
25946;SDS011;13745;51.470;9.894;2022-09-09T05:27:45;4.03;;;1.30;;
25946;SDS011;13745;51.470;9.894;2022-09-09T05:30:33;3.10;;;0.82;;
25946;SDS011;13745;51.470;9.894;2022-09-09T05:33:21;2.67;;;0.98;;
25946;SDS011;13745;51.470;9.894;2022-09-09T05:36:08;3.97;;;1.02;;
25946;SDS011;13745;51.470;9.894;2022-09-09T05:38:58;3.75;;;1.23;;
25946;SDS011;13745;51.470;9.894;2022-09-09T05:41:46;4.20;;;1.23;;
25946;SDS011;13745;51.470;9.894;2022-09-09T05:44:32;3.67;;;1.23;;
25946;SDS011;13745;51.470;9.894;2022-09-09T05:47:19;6.25;;;1.10;;
25946;SDS011;13745;51.470;9.894;2022-09-09T05:50:04;4.03;;;0.88;;
25946;SDS011;13745;51.470;9.894;2022-09-09T05:52:51;4.93;;;1.00;;
25946;SDS011;13745;51.470;9.894;2022-09-09T05:55:39;5.57;;;1.50;;
25946;SDS011;13745;51.470;9.894;2022-09-09T05:58:27;5.30;;;1.00;;
25946;SDS011;13745;51.470;9.894;2022-09-09T06:01:13;2.88;;;0.93;;
25946;SDS011;13745;51.470;9.894;2022-09-09T06:04:01;2.65;;;0.90;;
25946;SDS011;13745;51.470;9.894;2022-09-09T06:06:48;4.57;;;1.10;;
25946;SDS011;13745;51.470;9.894;2022-09-09T06:09:36;6.15;;;0.95;;
25946;SDS011;13745;51.470;9.894;2022-09-09T06:12:22;4.32;;;1.00;;
25946;SDS011;13745;51.470;9.894;2022-09-09T06:15:09;9.40;;;1.15;;
25946;SDS011;13745;51.470;9.894;2022-09-09T06:17:55;3.20;;;1.00;;
25946;SDS011;13745;51.470;9.894;2022-09-09T06:20:41;4.35;;;0.75;;
25946;SDS011;13745;51.470;9.894;2022-09-09T06:23:27;4.95;;;1.10;;
25946;SDS011;13745;51.470;9.894;2022-09-09T06:26:13;5.60;;;1.20;;
25946;SDS011;13745;51.470;9.894;2022-09-09T06:29:02;4.05;;;0.82;;
25946;SDS011;13745;51.470;9.894;2022-09-09T06:31:51;5.40;;;0.90;;
25946;SDS011;13745;51.470;9.894;2022-09-09T06:34:41;2.95;;;0.98;;
25946;SDS011;13745;51.470;9.894;2022-09-09T06:37:28;4.65;;;1.00;;
25946;SDS011;13745;51.470;9.894;2022-09-09T06:40:13;2.97;;;0.70;;
25946;SDS011;13745;51.470;9.894;2022-09-09T06:43:00;2.70;;;0.90;;
25946;SDS011;13745;51.470;9.894;2022-09-09T06:45:59;2.92;;;0.80;;
25946;SDS011;13745;51.470;9.894;2022-09-09T06:48:47;3.38;;;0.80;;
25946;SDS011;13745;51.470;9.894;2022-09-09T06:51:34;2.38;;;0.70;;
25946;SDS011;13745;51.470;9.894;2022-09-09T06:54:23;3.55;;;0.80;;
25946;SDS011;13745;51.470;9.894;2022-09-09T06:57:10;5.25;;;0.70;;
25946;SDS011;13745;51.470;9.894;2022-09-09T06:59:56;4.53;;;1.25;;
25946;SDS011;13745;51.470;9.894;2022-09-09T07:02:43;6.82;;;0.75;;
25946;SDS011;13745;51.470;9.894;2022-09-09T07:05:32;15.32;;;1.20;;
25946;SDS011;13745;51.470;9.894;2022-09-09T07:08:18;7.90;;;0.88;;
25946;SDS011;13745;51.470;9.894;2022-09-09T07:11:04;8.73;;;0.98;;
25946;SDS011;13745;51.470;9.894;2022-09-09T07:13:54;4.93;;;0.90;;
25946;SDS011;13745;51.470;9.894;2022-09-09T07:16:41;7.20;;;0.93;;
25946;SDS011;13745;51.470;9.894;2022-09-09T07:19:27;2.63;;;0.70;;
25946;SDS011;13745;51.470;9.894;2022-09-09T07:22:15;2.72;;;0.75;;
25946;SDS011;13745;51.470;9.894;2022-09-09T07:25:02;4.38;;;0.93;;
25946;SDS011;13745;51.470;9.894;2022-09-09T07:27:48;4.13;;;0.88;;
25946;SDS011;13745;51.470;9.894;2022-09-09T07:30:33;2.85;;;0.98;;
25946;SDS011;13745;51.470;9.894;2022-09-09T07:33:19;3.95;;;0.80;;
25946;SDS011;13745;51.470;9.894;2022-09-09T07:36:05;2.83;;;0.68;;
25946;SDS011;13745;51.470;9.894;2022-09-09T07:38:56;4.07;;;0.93;;
25946;SDS011;13745;51.470;9.894;2022-09-09T07:41:45;3.95;;;0.75;;
25946;SDS011;13745;51.470;9.894;2022-09-09T07:44:34;3.90;;;0.77;;
25946;SDS011;13745;51.470;9.894;2022-09-09T07:47:28;2.80;;;0.65;;
25946;SDS011;13745;51.470;9.894;2022-09-09T07:50:13;2.90;;;0.90;;
25946;SDS011;13745;51.470;9.894;2022-09-09T07:52:59;3.20;;;0.63;;
25946;SDS011;13745;51.470;9.894;2022-09-09T07:55:48;3.72;;;1.58;;
25946;SDS011;13745;51.470;9.894;2022-09-09T07:58:34;3.58;;;0.77;;
25946;SDS011;13745;51.470;9.894;2022-09-09T08:01:22;6.40;;;0.93;;
25946;SDS011;13745;51.470;9.894;2022-09-09T08:04:10;6.22;;;1.00;;
25946;SDS011;13745;51.470;9.894;2022-09-09T08:07:00;4.15;;;0.75;;
25946;SDS011;13745;51.470;9.894;2022-09-09T08:09:50;3.78;;;0.93;;
25946;SDS011;13745;51.470;9.894;2022-09-09T08:12:41;6.35;;;1.13;;
25946;SDS011;13745;51.470;9.894;2022-09-09T08:15:27;5.60;;;0.90;;
25946;SDS011;13745;51.470;9.894;2022-09-09T08:18:15;4.65;;;0.73;;
25946;SDS011;13745;51.470;9.894;2022-09-09T08:21:07;5.30;;;0.70;;
25946;SDS011;13745;51.470;9.894;2022-09-09T08:23:56;5.05;;;0.80;;
25946;SDS011;13745;51.470;9.894;2022-09-09T08:26:45;2.65;;;0.70;;
25946;SDS011;13745;51.470;9.894;2022-09-09T08:29:35;6.80;;;0.70;;
25946;SDS011;13745;51.470;9.894;2022-09-09T08:32:22;1.92;;;0.57;;
25946;SDS011;13745;51.470;9.894;2022-09-09T08:35:08;3.35;;;0.70;;
25946;SDS011;13745;51.470;9.894;2022-09-09T08:37:54;3.65;;;0.90;;
25946;SDS011;13745;51.470;9.894;2022-09-09T08:40:40;6.28;;;0.95;;
25946;SDS011;13745;51.470;9.894;2022-09-09T08:43:34;4.38;;;1.00;;
25946;SDS011;13745;51.470;9.894;2022-09-09T08:46:22;2.85;;;0.70;;
25946;SDS011;13745;51.470;9.894;2022-09-09T08:49:19;1.83;;;0.63;;
25946;SDS011;13745;51.470;9.894;2022-09-09T08:52:23;6.18;;;0.80;;
25946;SDS011;13745;51.470;9.894;2022-09-09T08:55:17;3.95;;;0.70;;
25946;SDS011;13745;51.470;9.894;2022-09-09T08:58:13;3.53;;;0.80;;
25946;SDS011;13745;51.470;9.894;2022-09-09T09:01:05;4.40;;;0.82;;
25946;SDS011;13745;51.470;9.894;2022-09-09T09:04:19;3.22;;;0.70;;
25946;SDS011;13745;51.470;9.894;2022-09-09T09:07:18;8.27;;;1.33;;
25946;SDS011;13745;51.470;9.894;2022-09-09T09:10:15;2.38;;;0.70;;
25946;SDS011;13745;51.470;9.894;2022-09-09T09:13:12;6.43;;;1.13;;
25946;SDS011;13745;51.470;9.894;2022-09-09T09:16:02;2.92;;;0.68;;
25946;SDS011;13745;51.470;9.894;2022-09-09T09:18:56;1.40;;;0.65;;
25946;SDS011;13745;51.470;9.894;2022-09-09T09:21:47;2.20;;;0.65;;
25946;SDS011;13745;51.470;9.894;2022-09-09T09:24:41;3.53;;;0.98;;
25946;SDS011;13745;51.470;9.894;2022-09-09T09:27:36;3.95;;;0.90;;
25946;SDS011;13745;51.470;9.894;2022-09-09T09:33:23;1.58;;;0.60;;
25946;SDS011;13745;51.470;9.894;2022-09-09T09:36:12;2.38;;;0.68;;
25946;SDS011;13745;51.470;9.894;2022-09-09T09:39:01;1.70;;;0.60;;
25946;SDS011;13745;51.470;9.894;2022-09-09T09:41:51;3.33;;;1.00;;
25946;SDS011;13745;51.470;9.894;2022-09-09T09:44:38;5.55;;;0.57;;
25946;SDS011;13745;51.470;9.894;2022-09-09T09:47:30;3.60;;;0.70;;
25946;SDS011;13745;51.470;9.894;2022-09-09T09:50:25;3.38;;;0.50;;
25946;SDS011;13745;51.470;9.894;2022-09-09T09:53:16;4.10;;;0.82;;
25946;SDS011;13745;51.470;9.894;2022-09-09T09:56:09;2.78;;;0.45;;
25946;SDS011;13745;51.470;9.894;2022-09-09T09:58:58;1.83;;;0.80;;
25946;SDS011;13745;51.470;9.894;2022-09-09T10:01:50;3.33;;;0.85;;
25946;SDS011;13745;51.470;9.894;2022-09-09T10:04:37;2.28;;;0.88;;
25946;SDS011;13745;51.470;9.894;2022-09-09T10:07:23;2.47;;;1.02;;
25946;SDS011;13745;51.470;9.894;2022-09-09T10:10:10;4.32;;;0.82;;
25946;SDS011;13745;51.470;9.894;2022-09-09T10:13:02;1.90;;;0.57;;
25946;SDS011;13745;51.470;9.894;2022-09-09T10:15:55;3.10;;;0.87;;
25946;SDS011;13745;51.470;9.894;2022-09-09T10:18:59;2.22;;;0.70;;
25946;SDS011;13745;51.470;9.894;2022-09-09T10:21:49;3.05;;;0.70;;
25946;SDS011;13745;51.470;9.894;2022-09-09T10:24:46;2.00;;;0.55;;
25946;SDS011;13745;51.470;9.894;2022-09-09T10:27:47;4.30;;;1.10;;
25946;SDS011;13745;51.470;9.894;2022-09-09T10:30:44;4.53;;;0.80;;
25946;SDS011;13745;51.470;9.894;2022-09-09T10:33:37;4.53;;;0.70;;
25946;SDS011;13745;51.470;9.894;2022-09-09T10:36:31;3.10;;;0.98;;
25946;SDS011;13745;51.470;9.894;2022-09-09T10:39:18;4.70;;;0.90;;
25946;SDS011;13745;51.470;9.894;2022-09-09T10:42:16;5.38;;;1.35;;
25946;SDS011;13745;51.470;9.894;2022-09-09T10:45:15;4.68;;;0.70;;
25946;SDS011;13745;51.470;9.894;2022-09-09T10:48:15;3.33;;;0.80;;
25946;SDS011;13745;51.470;9.894;2022-09-09T10:51:18;5.20;;;0.98;;
25946;SDS011;13745;51.470;9.894;2022-09-09T10:54:13;2.15;;;0.60;;
25946;SDS011;13745;51.470;9.894;2022-09-09T10:57:08;2.10;;;0.68;;
25946;SDS011;13745;51.470;9.894;2022-09-09T11:00:02;3.13;;;0.98;;
25946;SDS011;13745;51.470;9.894;2022-09-09T11:02:51;3.72;;;0.55;;
25946;SDS011;13745;51.470;9.894;2022-09-09T11:05:42;2.33;;;0.60;;
25946;SDS011;13745;51.470;9.894;2022-09-09T11:08:30;2.38;;;1.00;;
25946;SDS011;13745;51.470;9.894;2022-09-09T11:11:20;1.73;;;0.70;;
25946;SDS011;13745;51.470;9.894;2022-09-09T11:14:14;2.70;;;0.60;;
25946;SDS011;13745;51.470;9.894;2022-09-09T11:17:06;1.63;;;0.55;;
25946;SDS011;13745;51.470;9.894;2022-09-09T11:19:56;6.93;;;1.10;;
25946;SDS011;13745;51.470;9.894;2022-09-09T11:22:44;2.10;;;0.82;;
25946;SDS011;13745;51.470;9.894;2022-09-09T11:28:34;2.50;;;0.75;;
25946;SDS011;13745;51.470;9.894;2022-09-09T11:31:38;4.18;;;0.60;;
25946;SDS011;13745;51.470;9.894;2022-09-09T11:34:38;1.38;;;0.80;;
25946;SDS011;13745;51.470;9.894;2022-09-09T11:37:51;5.25;;;0.50;;
25946;SDS011;13745;51.470;9.894;2022-09-09T11:40:54;2.75;;;0.50;;
25946;SDS011;13745;51.470;9.894;2022-09-09T11:43:42;4.07;;;0.70;;
25946;SDS011;13745;51.470;9.894;2022-09-09T11:46:32;3.70;;;0.50;;
25946;SDS011;13745;51.470;9.894;2022-09-09T11:49:26;3.72;;;0.63;;
25946;SDS011;13745;51.470;9.894;2022-09-09T11:52:19;3.45;;;0.50;;
25946;SDS011;13745;51.470;9.894;2022-09-09T11:55:24;4.40;;;0.65;;
25946;SDS011;13745;51.470;9.894;2022-09-09T11:58:15;5.60;;;1.23;;
25946;SDS011;13745;51.470;9.894;2022-09-09T12:01:02;2.47;;;0.60;;
25946;SDS011;13745;51.470;9.894;2022-09-09T12:04:05;5.90;;;0.63;;
25946;SDS011;13745;51.470;9.894;2022-09-09T12:06:59;4.78;;;0.80;;
25946;SDS011;13745;51.470;9.894;2022-09-09T12:09:47;3.35;;;0.70;;
25946;SDS011;13745;51.470;9.894;2022-09-09T12:12:38;1.90;;;0.45;;
25946;SDS011;13745;51.470;9.894;2022-09-09T12:15:24;2.00;;;0.60;;
25946;SDS011;13745;51.470;9.894;2022-09-09T12:18:14;1.70;;;0.47;;
25946;SDS011;13745;51.470;9.894;2022-09-09T12:21:07;1.83;;;0.55;;
25946;SDS011;13745;51.470;9.894;2022-09-09T12:24:04;3.38;;;0.55;;
25946;SDS011;13745;51.470;9.894;2022-09-09T12:26:56;3.88;;;1.00;;
25946;SDS011;13745;51.470;9.894;2022-09-09T12:29:50;6.82;;;0.65;;
25946;SDS011;13745;51.470;9.894;2022-09-09T12:32:42;1.88;;;0.57;;
25946;SDS011;13745;51.470;9.894;2022-09-09T12:35:28;2.50;;;0.70;;
25946;SDS011;13745;51.470;9.894;2022-09-09T12:38:17;1.40;;;0.63;;
25946;SDS011;13745;51.470;9.894;2022-09-09T12:41:17;3.53;;;0.80;;
25946;SDS011;13745;51.470;9.894;2022-09-09T12:44:05;2.38;;;0.60;;
25946;SDS011;13745;51.470;9.894;2022-09-09T12:46:55;5.93;;;0.70;;
25946;SDS011;13745;51.470;9.894;2022-09-09T12:49:44;4.20;;;0.93;;
25946;SDS011;13745;51.470;9.894;2022-09-09T12:52:30;1.88;;;0.73;;
25946;SDS011;13745;51.470;9.894;2022-09-09T12:55:20;3.63;;;0.57;;
25946;SDS011;13745;51.470;9.894;2022-09-09T12:58:11;4.30;;;0.70;;
25946;SDS011;13745;51.470;9.894;2022-09-09T13:01:01;2.65;;;0.57;;
25946;SDS011;13745;51.470;9.894;2022-09-09T13:03:50;5.63;;;0.68;;
25946;SDS011;13745;51.470;9.894;2022-09-09T13:06:36;2.53;;;0.73;;
25946;SDS011;13745;51.470;9.894;2022-09-09T13:09:22;6.70;;;0.80;;
25946;SDS011;13745;51.470;9.894;2022-09-09T13:12:10;2.45;;;0.50;;
25946;SDS011;13745;51.470;9.894;2022-09-09T13:14:59;1.60;;;0.30;;
25946;SDS011;13745;51.470;9.894;2022-09-09T13:17:49;3.92;;;0.85;;
25946;SDS011;13745;51.470;9.894;2022-09-09T13:20:39;1.83;;;0.80;;
25946;SDS011;13745;51.470;9.894;2022-09-09T13:23:33;2.13;;;0.60;;
25946;SDS011;13745;51.470;9.894;2022-09-09T13:26:21;4.20;;;0.70;;
25946;SDS011;13745;51.470;9.894;2022-09-09T13:29:15;3.42;;;1.10;;
25946;SDS011;13745;51.470;9.894;2022-09-09T13:32:04;5.25;;;0.80;;
25946;SDS011;13745;51.470;9.894;2022-09-09T13:34:52;3.90;;;0.75;;
25946;SDS011;13745;51.470;9.894;2022-09-09T13:37:40;2.40;;;0.60;;
25946;SDS011;13745;51.470;9.894;2022-09-09T13:40:26;1.35;;;0.45;;
25946;SDS011;13745;51.470;9.894;2022-09-09T13:43:13;1.33;;;0.32;;
25946;SDS011;13745;51.470;9.894;2022-09-09T13:46:21;3.33;;;0.32;;
25946;SDS011;13745;51.470;9.894;2022-09-09T13:49:19;0.55;;;0.20;;
25946;SDS011;13745;51.470;9.894;2022-09-09T13:52:09;0.80;;;0.20;;
25946;SDS011;13745;51.470;9.894;2022-09-09T13:54:59;1.67;;;0.32;;
25946;SDS011;13745;51.470;9.894;2022-09-09T13:57:55;2.65;;;0.50;;
25946;SDS011;13745;51.470;9.894;2022-09-09T14:00:41;2.15;;;0.47;;
25946;SDS011;13745;51.470;9.894;2022-09-09T14:03:27;1.65;;;0.28;;
25946;SDS011;13745;51.470;9.894;2022-09-09T14:06:14;3.08;;;0.47;;
25946;SDS011;13745;51.470;9.894;2022-09-09T14:09:00;7.97;;;0.63;;
25946;SDS011;13745;51.470;9.894;2022-09-09T14:11:47;3.08;;;0.32;;
25946;SDS011;13745;51.470;9.894;2022-09-09T14:14:32;1.17;;;0.40;;
25946;SDS011;13745;51.470;9.894;2022-09-09T14:17:19;1.02;;;0.38;;
25946;SDS011;13745;51.470;9.894;2022-09-09T14:20:05;2.78;;;0.50;;
25946;SDS011;13745;51.470;9.894;2022-09-09T14:22:53;3.47;;;1.50;;
25946;SDS011;13745;51.470;9.894;2022-09-09T14:25:39;2.53;;;0.50;;
25946;SDS011;13745;51.470;9.894;2022-09-09T14:28:27;1.88;;;0.50;;
25946;SDS011;13745;51.470;9.894;2022-09-09T14:31:13;2.17;;;0.50;;
25946;SDS011;13745;51.470;9.894;2022-09-09T14:34:01;2.38;;;0.40;;
25946;SDS011;13745;51.470;9.894;2022-09-09T14:36:47;2.90;;;0.50;;
25946;SDS011;13745;51.470;9.894;2022-09-09T14:39:32;1.38;;;0.35;;
25946;SDS011;13745;51.470;9.894;2022-09-09T14:42:18;1.48;;;0.60;;
25946;SDS011;13745;51.470;9.894;2022-09-09T14:45:06;2.67;;;0.50;;
25946;SDS011;13745;51.470;9.894;2022-09-09T14:47:52;1.83;;;0.40;;
25946;SDS011;13745;51.470;9.894;2022-09-09T14:50:38;1.77;;;0.40;;
25946;SDS011;13745;51.470;9.894;2022-09-09T14:53:24;1.83;;;0.30;;
25946;SDS011;13745;51.470;9.894;2022-09-09T14:56:11;2.42;;;0.30;;
25946;SDS011;13745;51.470;9.894;2022-09-09T14:58:59;2.33;;;0.50;;
25946;SDS011;13745;51.470;9.894;2022-09-09T15:01:47;5.05;;;0.35;;
25946;SDS011;13745;51.470;9.894;2022-09-09T15:04:33;1.77;;;0.80;;
25946;SDS011;13745;51.470;9.894;2022-09-09T15:07:19;2.75;;;0.40;;
25946;SDS011;13745;51.470;9.894;2022-09-09T15:10:06;1.98;;;0.30;;
25946;SDS011;13745;51.470;9.894;2022-09-09T15:12:53;5.70;;;0.43;;
25946;SDS011;13745;51.470;9.894;2022-09-09T15:15:38;2.47;;;0.30;;
25946;SDS011;13745;51.470;9.894;2022-09-09T15:18:27;1.27;;;0.30;;
25946;SDS011;13745;51.470;9.894;2022-09-09T15:21:14;3.25;;;0.50;;
25946;SDS011;13745;51.470;9.894;2022-09-09T15:24:01;2.47;;;0.60;;
25946;SDS011;13745;51.470;9.894;2022-09-09T15:26:48;3.45;;;0.40;;
25946;SDS011;13745;51.470;9.894;2022-09-09T15:29:34;2.55;;;0.80;;
25946;SDS011;13745;51.470;9.894;2022-09-09T15:32:19;2.05;;;0.50;;
25946;SDS011;13745;51.470;9.894;2022-09-09T15:35:06;3.80;;;0.50;;
25946;SDS011;13745;51.470;9.894;2022-09-09T15:37:52;2.65;;;0.60;;
25946;SDS011;13745;51.470;9.894;2022-09-09T15:40:38;1.48;;;0.70;;
25946;SDS011;13745;51.470;9.894;2022-09-09T15:43:24;2.80;;;0.55;;
25946;SDS011;13745;51.470;9.894;2022-09-09T15:46:21;3.47;;;0.38;;
25946;SDS011;13745;51.470;9.894;2022-09-09T15:49:12;1.30;;;0.30;;
25946;SDS011;13745;51.470;9.894;2022-09-09T15:52:01;1.55;;;0.50;;
25946;SDS011;13745;51.470;9.894;2022-09-09T15:54:47;1.55;;;0.45;;
25946;SDS011;13745;51.470;9.894;2022-09-09T15:57:33;1.33;;;0.47;;
25946;SDS011;13745;51.470;9.894;2022-09-09T16:00:19;1.35;;;0.40;;
25946;SDS011;13745;51.470;9.894;2022-09-09T16:03:05;3.92;;;0.80;;
25946;SDS011;13745;51.470;9.894;2022-09-09T16:05:51;1.65;;;0.50;;
25946;SDS011;13745;51.470;9.894;2022-09-09T16:08:39;2.83;;;0.52;;
25946;SDS011;13745;51.470;9.894;2022-09-09T16:11:27;2.63;;;0.52;;
25946;SDS011;13745;51.470;9.894;2022-09-09T16:14:15;0.77;;;0.20;;
25946;SDS011;13745;51.470;9.894;2022-09-09T16:17:01;6.38;;;0.50;;
25946;SDS011;13745;51.470;9.894;2022-09-09T16:19:48;3.30;;;0.40;;
25946;SDS011;13745;51.470;9.894;2022-09-09T16:22:33;2.15;;;0.68;;
25946;SDS011;13745;51.470;9.894;2022-09-09T16:25:21;1.17;;;0.30;;
25946;SDS011;13745;51.470;9.894;2022-09-09T16:28:06;2.92;;;0.95;;
25946;SDS011;13745;51.470;9.894;2022-09-09T16:30:52;1.00;;;0.47;;
25946;SDS011;13745;51.470;9.894;2022-09-09T16:33:38;2.60;;;0.60;;
25946;SDS011;13745;51.470;9.894;2022-09-09T16:36:24;0.80;;;0.30;;
25946;SDS011;13745;51.470;9.894;2022-09-09T16:39:11;2.42;;;0.50;;
25946;SDS011;13745;51.470;9.894;2022-09-09T16:41:59;2.10;;;0.57;;
25946;SDS011;13745;51.470;9.894;2022-09-09T16:44:46;2.45;;;0.70;;
25946;SDS011;13745;51.470;9.894;2022-09-09T16:47:34;1.08;;;0.40;;
25946;SDS011;13745;51.470;9.894;2022-09-09T16:50:20;1.92;;;0.43;;
25946;SDS011;13745;51.470;9.894;2022-09-09T16:53:06;2.08;;;0.60;;
25946;SDS011;13745;51.470;9.894;2022-09-09T16:55:53;4.45;;;0.75;;
25946;SDS011;13745;51.470;9.894;2022-09-09T16:58:40;2.40;;;0.40;;
25946;SDS011;13745;51.470;9.894;2022-09-09T17:01:27;3.90;;;0.60;;
25946;SDS011;13745;51.470;9.894;2022-09-09T17:04:16;5.50;;;0.80;;
25946;SDS011;13745;51.470;9.894;2022-09-09T17:07:04;1.38;;;0.40;;
25946;SDS011;13745;51.470;9.894;2022-09-09T17:09:50;2.67;;;0.45;;
25946;SDS011;13745;51.470;9.894;2022-09-09T17:12:38;3.67;;;0.40;;
25946;SDS011;13745;51.470;9.894;2022-09-09T17:15:25;1.45;;;0.32;;